createdAt,value
2019-01-13T00:02:01.039Z,91.49
2019-01-13T00:04:29.883Z,91.20
2019-01-13T00:06:58.947Z,91.85
2019-01-13T00:09:27.695Z,91.41
2019-01-13T00:11:56.552Z,91.31
2019-01-13T00:14:26.811Z,91.26
2019-01-13T00:16:54.134Z,91.41
2019-01-13T00:19:22.921Z,91.25
2019-01-13T00:21:51.732Z,91.54
2019-01-13T00:24:20.522Z,91.61
2019-01-13T00:26:49.311Z,91.48
2019-01-13T00:29:18.231Z,91.37
2019-01-13T00:31:47.016Z,91.11
2019-01-13T00:34:15.822Z,90.93
2019-01-13T00:36:44.603Z,91.44
2019-01-13T00:39:13.403Z,91.51
2019-01-13T00:41:42.189Z,91.22
2019-01-13T00:44:11.006Z,91.37
2019-01-13T00:46:39.787Z,91.44
2019-01-13T00:49:08.571Z,91.37
2019-01-13T00:51:37.446Z,91.07
2019-01-13T00:54:06.294Z,91.42
2019-01-13T00:56:35.083Z,91.50
2019-01-13T00:59:03.911Z,91.32
2019-01-13T01:01:32.802Z,91.43
2019-01-13T01:04:01.621Z,91.24
2019-01-13T01:06:30.547Z,91.43
2019-01-13T01:08:59.693Z,91.69
2019-01-13T01:11:28.581Z,92.17
2019-01-13T01:13:57.446Z,92.14
2019-01-13T01:16:26.259Z,92.09
2019-01-13T01:18:55.079Z,92.24
2019-01-13T01:21:23.891Z,92.19
2019-01-13T01:23:52.727Z,92.45
2019-01-13T01:26:21.512Z,92.45
2019-01-13T01:28:50.363Z,92.52
2019-01-13T01:31:19.171Z,92.58
2019-01-13T01:33:47.973Z,92.67
2019-01-13T01:36:16.812Z,92.65
2019-01-13T01:38:45.657Z,92.88
2019-01-13T01:41:14.466Z,93.26
2019-01-13T01:43:43.354Z,92.89
2019-01-13T01:46:12.143Z,92.80
2019-01-13T01:48:40.983Z,92.93
2019-01-13T01:51:09.811Z,92.72
2019-01-13T01:53:38.599Z,92.61
2019-01-13T01:56:07.409Z,92.73
2019-01-13T01:58:36.194Z,92.58
2019-01-13T02:01:05.039Z,92.48
2019-01-13T02:03:33.845Z,92.89
2019-01-13T02:06:03.430Z,92.70
2019-01-13T02:08:32.313Z,92.92
2019-01-13T02:11:01.207Z,92.90
2019-01-13T02:13:30.006Z,92.65
2019-01-13T02:15:58.867Z,92.77
2019-01-13T02:18:27.732Z,92.79
2019-01-13T02:20:56.515Z,92.74
2019-01-13T02:23:25.371Z,92.65
2019-01-13T02:25:54.227Z,92.97
2019-01-13T02:28:23.042Z,92.70
2019-01-13T02:30:51.917Z,93.30
2019-01-13T02:33:20.698Z,93.39
2019-01-13T02:35:49.549Z,93.06
2019-01-13T02:38:18.650Z,93.22
2019-01-13T02:40:47.449Z,93.26
2019-01-13T02:43:16.327Z,93.16
2019-01-13T02:45:45.113Z,93.33
2019-01-13T02:48:13.949Z,93.41
2019-01-13T02:50:42.744Z,92.95
2019-01-13T02:53:11.549Z,93.16
2019-01-13T02:55:40.389Z,93.36
2019-01-13T02:58:09.179Z,93.16
2019-01-13T03:00:38.000Z,93.16
2019-01-13T03:03:08.046Z,93.31
2019-01-13T03:05:37.736Z,93.08
2019-01-13T03:08:06.550Z,93.17
2019-01-13T03:10:35.335Z,93.33
2019-01-13T03:13:04.173Z,93.35
2019-01-13T03:15:33.056Z,93.24
2019-01-13T03:18:01.831Z,93.19
2019-01-13T03:20:30.651Z,93.03
2019-01-13T03:22:59.436Z,93.35
2019-01-13T03:25:28.232Z,93.46
2019-01-13T03:27:57.083Z,93.54
2019-01-13T03:30:25.956Z,93.17
2019-01-13T03:32:55.652Z,93.50
2019-01-13T03:35:24.630Z,93.36
2019-01-13T03:37:53.407Z,93.46
2019-01-13T03:40:24.070Z,93.84
2019-01-13T03:42:52.933Z,93.93
2019-01-13T03:45:21.803Z,94.06
2019-01-13T03:47:50.581Z,93.74
2019-01-13T03:50:21.109Z,93.80
2019-01-13T03:52:53.262Z,93.85
2019-01-13T03:55:19.862Z,93.95
2019-01-13T03:57:48.659Z,93.54
2019-01-13T04:00:20.208Z,93.69
2019-01-13T04:02:49.601Z,93.46
2019-01-13T04:05:18.390Z,93.55
2019-01-13T04:07:47.178Z,93.82
2019-01-13T04:10:16.290Z,93.50
2019-01-13T04:12:45.206Z,93.86
2019-01-13T04:15:21.928Z,93.67
2019-01-13T04:17:50.715Z,94.01
2019-01-13T04:20:19.525Z,94.02
2019-01-13T04:22:48.342Z,93.74
2019-01-13T04:25:17.267Z,94.01
2019-01-13T04:27:46.146Z,94.22
2019-01-13T04:30:14.957Z,94.27
2019-01-13T04:32:43.748Z,93.99
2019-01-13T04:35:12.568Z,94.00
2019-01-13T04:37:41.346Z,94.15
2019-01-13T04:40:10.250Z,93.64
2019-01-13T04:42:39.053Z,93.84
2019-01-13T04:45:07.841Z,94.08
2019-01-13T04:47:36.686Z,93.76
2019-01-13T04:50:05.765Z,93.80
2019-01-13T04:52:34.570Z,94.07
2019-01-13T04:55:03.385Z,94.10
2019-01-13T04:57:32.276Z,94.29
2019-01-13T05:00:01.161Z,94.11
2019-01-13T05:02:30.727Z,94.15
2019-01-13T05:04:59.538Z,94.37
2019-01-13T05:07:28.331Z,94.12
2019-01-13T05:09:57.187Z,94.22
2019-01-13T05:12:27.809Z,94.34
2019-01-13T05:14:54.860Z,94.14
2019-01-13T05:17:23.707Z,94.30
2019-01-13T05:19:52.561Z,94.35
2019-01-13T05:22:21.450Z,94.28
2019-01-13T05:24:50.318Z,94.38
2019-01-13T05:27:19.087Z,94.13
2019-01-13T05:29:47.927Z,94.44
2019-01-13T05:32:16.754Z,94.44
2019-01-13T05:34:45.598Z,94.62
2019-01-13T05:37:14.438Z,94.67
2019-01-13T05:39:43.297Z,94.78
2019-01-13T05:42:12.139Z,94.51
2019-01-13T05:44:41.024Z,94.94
2019-01-13T05:47:09.891Z,94.90
2019-01-13T05:49:38.779Z,94.78
2019-01-13T05:52:07.575Z,94.84
2019-01-13T05:54:36.395Z,94.88
2019-01-13T05:57:05.187Z,95.07
2019-01-13T05:59:34.038Z,94.85
2019-01-13T06:02:02.955Z,94.95
2019-01-13T06:04:31.775Z,95.16
2019-01-13T06:07:00.662Z,95.16
2019-01-13T06:09:29.448Z,95.16
2019-01-13T06:11:58.331Z,95.13
2019-01-13T06:14:27.120Z,94.92
2019-01-13T06:16:55.887Z,94.85
2019-01-13T06:19:24.935Z,94.70
2019-01-13T06:21:53.723Z,94.95
2019-01-13T06:24:22.511Z,95.18
2019-01-13T06:26:51.444Z,95.33
2019-01-13T06:29:20.263Z,95.31
2019-01-13T06:31:56.110Z,95.30
2019-01-13T06:34:18.051Z,95.25
2019-01-13T06:36:46.844Z,95.02
2019-01-13T06:39:15.612Z,95.28
2019-01-13T06:41:44.483Z,94.87
2019-01-13T06:44:13.316Z,95.27
2019-01-13T06:46:42.104Z,95.40
2019-01-13T06:49:10.960Z,95.38
2019-01-13T06:51:39.759Z,95.32
2019-01-13T06:54:08.619Z,95.42
2019-01-13T06:56:37.506Z,95.23
2019-01-13T06:59:06.306Z,95.19
2019-01-13T07:01:35.156Z,94.99
2019-01-13T07:04:06.174Z,95.20
2019-01-13T07:06:34.967Z,95.26
2019-01-13T07:09:04.366Z,94.93
2019-01-13T07:11:33.274Z,94.67
2019-01-13T07:14:02.139Z,94.84
2019-01-13T07:16:30.995Z,95.18
2019-01-13T07:18:59.785Z,94.93
2019-01-13T07:21:28.671Z,94.89
2019-01-13T07:23:57.464Z,94.92
2019-01-13T07:26:26.253Z,94.72
2019-01-13T07:28:55.120Z,94.86
2019-01-13T07:31:23.919Z,94.74
2019-01-13T07:33:52.711Z,94.86
2019-01-13T07:36:21.530Z,94.73
2019-01-13T07:38:50.330Z,94.83
2019-01-13T07:41:19.138Z,94.96
2019-01-13T07:43:47.930Z,94.47
2019-01-13T07:46:16.711Z,94.50
2019-01-13T07:48:45.520Z,94.57
2019-01-13T07:51:14.363Z,94.67
2019-01-13T07:53:43.146Z,94.44
2019-01-13T07:56:12.511Z,94.48
2019-01-13T07:58:41.808Z,94.46
2019-01-13T08:01:10.583Z,94.44
2019-01-13T08:03:39.371Z,94.15
2019-01-13T08:06:08.219Z,93.85
2019-01-13T08:08:37.071Z,94.02
2019-01-13T08:11:05.870Z,94.26
2019-01-13T08:13:34.643Z,93.93
2019-01-13T08:16:03.418Z,94.05
2019-01-13T08:18:33.149Z,94.12
2019-01-13T08:21:02.059Z,94.02
2019-01-13T08:23:30.906Z,93.56
2019-01-13T08:25:59.667Z,93.42
2019-01-13T08:28:28.558Z,93.25
2019-01-13T08:30:57.377Z,93.39
2019-01-13T08:33:26.201Z,93.60
2019-01-13T08:35:55.039Z,93.39
2019-01-13T08:38:23.919Z,93.57
2019-01-13T08:40:52.713Z,93.41
2019-01-13T08:43:21.505Z,93.31
2019-01-13T08:45:50.615Z,93.14
2019-01-13T08:48:19.827Z,93.28
2019-01-13T08:50:49.344Z,93.06
2019-01-13T08:53:18.123Z,93.00
2019-01-13T08:55:46.912Z,93.05
2019-01-13T08:58:15.701Z,93.25
2019-01-13T09:00:45.363Z,93.01
2019-01-13T09:03:14.243Z,93.06
2019-01-13T09:05:43.084Z,93.08
2019-01-13T09:08:11.986Z,92.71
2019-01-13T09:10:40.831Z,92.80
2019-01-13T09:13:11.794Z,92.57
2019-01-13T09:15:40.602Z,92.47
2019-01-13T09:18:09.405Z,92.75
2019-01-13T09:20:38.236Z,92.48
2019-01-13T09:23:07.108Z,92.49
2019-01-13T09:25:37.058Z,92.43
2019-01-13T09:28:07.007Z,92.52
2019-01-13T09:30:35.783Z,92.52
2019-01-13T09:33:05.637Z,92.81
2019-01-13T09:35:35.199Z,93.27
2019-01-13T09:38:06.677Z,93.10
2019-01-13T09:40:34.527Z,93.33
2019-01-13T09:43:03.643Z,93.29
2019-01-13T09:45:32.556Z,93.46
2019-01-13T09:48:01.400Z,93.56
2019-01-13T09:50:30.255Z,93.67
2019-01-13T09:52:59.053Z,93.47
2019-01-13T09:55:27.865Z,93.92
2019-01-13T09:57:56.659Z,93.54
2019-01-13T10:00:31.291Z,93.52
2019-01-13T10:03:00.144Z,93.27
2019-01-13T10:05:28.983Z,93.77
2019-01-13T10:07:57.827Z,93.52
2019-01-13T10:10:26.696Z,93.38
2019-01-13T10:12:55.515Z,93.63
2019-01-13T10:15:24.340Z,93.45
2019-01-13T10:17:53.120Z,93.74
2019-01-13T10:20:22.038Z,93.92
2019-01-13T10:22:50.843Z,93.56
2019-01-13T10:25:19.637Z,93.76
2019-01-13T10:27:48.525Z,93.45
2019-01-13T10:30:20.815Z,93.66
2019-01-13T10:32:54.706Z,93.47
2019-01-13T10:35:18.426Z,93.79
2019-01-13T10:37:47.271Z,93.70
2019-01-13T10:40:17.986Z,93.70
2019-01-13T10:42:46.836Z,93.50
2019-01-13T10:45:15.723Z,93.54
2019-01-13T10:47:44.498Z,93.79
2019-01-13T10:50:18.113Z,93.65
2019-01-13T10:52:46.876Z,93.46
2019-01-13T10:55:15.995Z,93.61
2019-01-13T10:57:44.863Z,93.63
2019-01-13T11:00:17.476Z,93.85
2019-01-13T11:02:46.278Z,93.54
2019-01-13T11:05:15.100Z,93.75
2019-01-13T11:07:43.952Z,93.89
2019-01-13T11:10:13.658Z,93.92
2019-01-13T11:12:42.514Z,93.80
2019-01-13T11:15:11.451Z,93.37
2019-01-13T11:17:40.235Z,93.44
2019-01-13T11:20:15.576Z,93.63
2019-01-13T11:22:44.415Z,93.44
2019-01-13T11:25:13.316Z,93.46
2019-01-13T11:27:42.211Z,93.73
2019-01-13T11:30:13.899Z,93.71
2019-01-13T11:32:42.800Z,93.66
2019-01-13T11:35:11.977Z,93.73
2019-01-13T11:37:40.751Z,93.70
2019-01-13T11:40:11.404Z,93.41
2019-01-13T11:42:40.194Z,93.65
2019-01-13T11:45:09.696Z,93.63
2019-01-13T11:47:38.496Z,93.63
2019-01-13T11:50:10.441Z,93.44
2019-01-13T11:52:39.311Z,93.73
2019-01-13T11:55:09.638Z,93.72
2019-01-13T11:57:38.461Z,93.47
2019-01-13T12:00:12.331Z,93.84
2019-01-13T12:02:41.267Z,93.31
2019-01-13T12:05:10.053Z,93.44
2019-01-13T12:07:38.839Z,93.38
2019-01-13T12:10:09.967Z,93.52
2019-01-13T12:12:38.782Z,93.63
2019-01-13T12:15:10.295Z,93.71
2019-01-13T12:17:39.073Z,93.63
2019-01-13T12:20:09.939Z,93.98
2019-01-13T12:22:38.799Z,93.48
2019-01-13T12:25:08.838Z,93.87
2019-01-13T12:27:37.648Z,93.81
2019-01-13T12:30:08.147Z,93.78
2019-01-13T12:32:36.947Z,93.57
2019-01-13T12:35:05.831Z,93.70
2019-01-13T12:37:34.628Z,93.53
2019-01-13T12:40:03.463Z,93.50
2019-01-13T12:42:32.291Z,93.55
2019-01-13T12:45:01.100Z,93.15
2019-01-13T12:47:29.991Z,93.24
2019-01-13T12:49:58.849Z,93.33
2019-01-13T12:52:27.698Z,93.03
2019-01-13T12:54:56.528Z,93.16
2019-01-13T12:57:25.312Z,93.14
2019-01-13T12:59:54.176Z,92.68
2019-01-13T13:02:23.026Z,92.61
2019-01-13T13:04:51.834Z,92.89
2019-01-13T13:07:20.739Z,92.35
2019-01-13T13:09:49.617Z,92.24
2019-01-13T13:12:18.489Z,92.50
2019-01-13T13:14:47.331Z,92.29
2019-01-13T13:17:16.124Z,92.45
2019-01-13T13:19:44.945Z,92.71
2019-01-13T13:22:13.733Z,92.28
2019-01-13T13:24:42.576Z,92.48
2019-01-13T13:27:11.495Z,92.56
2019-01-13T13:29:40.346Z,92.67
2019-01-13T13:32:09.155Z,92.39
2019-01-13T13:34:37.923Z,92.50
2019-01-13T13:37:06.728Z,92.47
2019-01-13T13:39:35.506Z,92.90
2019-01-13T13:42:04.295Z,92.71
2019-01-13T13:44:33.133Z,92.87
2019-01-13T13:47:01.976Z,92.91
2019-01-13T13:49:30.959Z,92.37
2019-01-13T13:51:59.760Z,92.20
2019-01-13T13:54:28.657Z,92.04
2019-01-13T13:56:57.451Z,92.09
2019-01-13T13:59:26.291Z,92.35
2019-01-13T14:01:55.088Z,91.88
2019-01-13T14:04:23.907Z,92.20
2019-01-13T14:06:52.697Z,92.07
2019-01-13T14:09:21.567Z,91.56
2019-01-13T14:11:50.344Z,91.99
2019-01-13T14:14:19.147Z,92.24
2019-01-13T14:16:48.039Z,92.12
2019-01-13T14:19:16.839Z,92.00
2019-01-13T14:21:45.633Z,91.76
2019-01-13T14:24:14.505Z,91.69
2019-01-13T14:26:43.275Z,91.58
2019-01-13T14:29:12.222Z,91.68
2019-01-13T14:31:41.092Z,91.58
2019-01-13T14:34:09.851Z,91.03
2019-01-13T14:36:38.661Z,91.02
2019-01-13T14:39:08.384Z,91.06
2019-01-13T14:41:37.167Z,91.00
2019-01-13T14:44:06.027Z,91.08
2019-01-13T14:46:34.941Z,90.72
2019-01-13T14:49:03.547Z,90.88
2019-01-13T14:51:32.375Z,90.37
2019-01-13T14:54:01.231Z,90.49
2019-01-13T14:56:30.086Z,90.40
2019-01-13T14:59:00.047Z,90.39
2019-01-13T15:01:28.858Z,90.21
2019-01-13T15:04:00.018Z,90.06
2019-01-13T15:06:26.592Z,90.36
2019-01-13T15:08:55.623Z,90.26
2019-01-13T15:11:24.451Z,89.75
2019-01-13T15:13:53.291Z,89.42
2019-01-13T15:16:22.120Z,89.35
2019-01-13T15:18:50.968Z,89.62
2019-01-13T15:21:19.763Z,89.14
2019-01-13T15:23:48.682Z,89.43
2019-01-13T15:26:17.526Z,89.00
2019-01-13T15:28:46.420Z,89.24
2019-01-13T15:31:15.315Z,88.90
2019-01-13T15:33:44.151Z,89.22
2019-01-13T15:36:13.027Z,89.07
2019-01-13T15:38:41.833Z,88.94
2019-01-13T15:41:10.707Z,88.63
2019-01-13T15:43:39.566Z,89.07
2019-01-13T15:46:08.360Z,88.44
2019-01-13T15:48:37.172Z,88.67
2019-01-13T15:51:05.971Z,88.64
2019-01-13T15:53:34.818Z,88.08
2019-01-13T15:56:03.646Z,88.14
2019-01-13T15:58:32.566Z,88.31
2019-01-13T16:01:01.495Z,88.31
2019-01-13T16:03:30.380Z,88.00
2019-01-13T16:05:59.219Z,87.85
2019-01-13T16:08:28.067Z,87.71
2019-01-13T16:10:56.957Z,88.15
2019-01-13T16:13:25.753Z,87.73
2019-01-13T16:15:54.996Z,88.41
2019-01-13T16:18:23.859Z,87.59
2019-01-13T16:20:52.691Z,88.04
2019-01-13T16:23:21.543Z,87.97
2019-01-13T16:25:50.369Z,87.91
2019-01-13T16:28:19.218Z,86.94
2019-01-13T16:30:48.012Z,87.51
2019-01-13T16:33:16.848Z,87.66
2019-01-13T16:35:45.706Z,86.55
2019-01-13T16:38:14.660Z,87.01
2019-01-13T16:40:47.490Z,87.33
2019-01-13T16:43:16.418Z,87.29
2019-01-13T16:45:45.380Z,87.24
2019-01-13T16:48:19.711Z,87.25
2019-01-13T16:50:49.553Z,87.46
2019-01-13T16:53:21.151Z,86.66
2019-01-13T16:55:50.004Z,86.64
2019-01-13T16:58:18.902Z,86.85
2019-01-13T17:00:47.772Z,86.92
2019-01-13T17:03:16.677Z,86.79
2019-01-13T17:05:45.847Z,87.37
2019-01-13T17:08:14.656Z,87.59
2019-01-13T17:10:43.453Z,86.41
2019-01-13T17:13:12.255Z,86.65
2019-01-13T17:15:41.067Z,86.31
2019-01-13T17:18:09.892Z,86.67
2019-01-13T17:20:38.706Z,86.77
2019-01-13T17:23:07.610Z,86.91
2019-01-13T17:25:36.524Z,86.95
2019-01-13T17:28:05.375Z,87.15
2019-01-13T17:30:35.354Z,87.37
2019-01-13T17:33:04.467Z,87.93
2019-01-13T17:35:33.291Z,87.89
2019-01-13T17:38:02.164Z,88.19
2019-01-13T17:40:30.969Z,87.73
2019-01-13T17:42:59.763Z,88.05
2019-01-13T17:45:31.256Z,88.67
2019-01-13T17:48:00.102Z,87.94
2019-01-13T17:50:28.944Z,87.08
2019-01-13T17:52:57.751Z,87.30
2019-01-13T17:55:27.743Z,87.53
2019-01-13T17:57:56.591Z,87.71
2019-01-13T18:00:34.334Z,88.05
2019-01-13T18:03:03.496Z,88.23
2019-01-13T18:05:32.332Z,88.45
2019-01-13T18:08:01.131Z,88.74
2019-01-13T18:10:29.996Z,88.91
2019-01-13T18:13:00.247Z,88.97
2019-01-13T18:15:29.219Z,89.10
2019-01-13T18:17:58.058Z,89.23
2019-01-13T18:20:26.836Z,89.09
2019-01-13T18:22:55.636Z,89.29
2019-01-13T18:25:24.456Z,89.27
2019-01-13T18:27:53.389Z,89.27
2019-01-13T18:30:23.351Z,89.46
2019-01-13T18:32:52.135Z,89.18
2019-01-13T18:35:21.487Z,88.80
2019-01-13T18:37:50.260Z,89.02
2019-01-13T18:40:19.383Z,88.78
2019-01-13T18:42:48.200Z,88.84
2019-01-13T18:45:17.022Z,89.06
2019-01-13T18:47:45.855Z,88.86
2019-01-13T18:50:16.547Z,88.71
2019-01-13T18:52:50.094Z,88.59
2019-01-13T18:55:18.939Z,88.17
2019-01-13T18:57:47.723Z,88.09
2019-01-13T19:00:18.747Z,87.74
2019-01-13T19:02:47.627Z,87.77
2019-01-13T19:05:18.364Z,87.72
2019-01-13T19:07:47.152Z,87.65
2019-01-13T19:10:23.610Z,87.82
2019-01-13T19:12:57.076Z,87.37
2019-01-13T19:15:25.864Z,87.32
2019-01-13T19:17:56.236Z,87.81
2019-01-13T19:20:28.296Z,87.77
2019-01-13T19:23:01.372Z,87.71
2019-01-13T19:25:32.220Z,87.80
2019-01-13T19:28:01.011Z,87.01
2019-01-13T19:30:29.854Z,87.51
2019-01-13T19:32:58.633Z,87.60
2019-01-13T19:35:27.436Z,87.42
2019-01-13T19:37:56.342Z,87.12
2019-01-13T19:40:25.239Z,87.16
2019-01-13T19:42:54.035Z,87.30
2019-01-13T19:45:22.840Z,87.11
2019-01-13T19:47:51.668Z,86.86
2019-01-13T19:50:22.671Z,86.17
2019-01-13T19:52:51.495Z,85.89
2019-01-13T19:55:20.305Z,85.98
2019-01-13T19:57:49.095Z,85.98
2019-01-13T20:00:20.967Z,85.79
2019-01-13T20:02:49.570Z,85.64
2019-01-13T20:05:18.350Z,85.67
2019-01-13T20:07:47.240Z,85.20
2019-01-13T20:10:16.050Z,85.00
2019-01-13T20:12:44.863Z,85.11
2019-01-13T20:15:14.132Z,84.35
2019-01-13T20:17:43.604Z,84.32
2019-01-13T20:20:13.735Z,83.14
2019-01-13T20:22:42.523Z,83.62
2019-01-13T20:25:12.123Z,84.18
2019-01-13T20:27:40.934Z,84.04
2019-01-13T20:30:13.810Z,83.47
2019-01-13T20:32:43.666Z,83.64
2019-01-13T20:35:18.983Z,84.01
2019-01-13T20:37:41.343Z,83.64
2019-01-13T20:40:10.276Z,83.24
2019-01-13T20:42:39.115Z,83.65
2019-01-13T20:45:12.448Z,82.96
2019-01-13T20:47:41.236Z,83.32
2019-01-13T20:50:11.707Z,83.18
2019-01-13T20:52:40.595Z,82.48
2019-01-13T20:55:09.874Z,83.01
2019-01-13T20:57:38.721Z,83.17
2019-01-13T21:00:10.647Z,82.96
2019-01-13T21:02:39.924Z,82.49
2019-01-13T21:05:08.695Z,82.73
2019-01-13T21:07:37.499Z,83.43
2019-01-13T21:10:07.852Z,83.46
2019-01-13T21:12:36.634Z,83.24
2019-01-13T21:15:07.301Z,83.35
2019-01-13T21:17:36.382Z,83.23
2019-01-13T21:20:06.573Z,83.26
2019-01-13T21:22:35.698Z,83.41
2019-01-13T21:25:05.715Z,82.38
2019-01-13T21:27:34.495Z,83.29
2019-01-13T21:30:03.531Z,82.88
2019-01-13T21:32:32.471Z,83.12
2019-01-13T21:35:01.432Z,82.30
2019-01-13T21:37:30.096Z,82.87
2019-01-13T21:39:58.964Z,83.02
2019-01-13T21:42:27.750Z,82.43
2019-01-13T21:44:56.567Z,82.91
2019-01-13T21:47:25.369Z,81.80
2019-01-13T21:49:54.226Z,81.30
2019-01-13T21:52:23.083Z,81.71
2019-01-13T21:54:51.916Z,82.93
2019-01-13T21:57:21.444Z,83.71
2019-01-13T21:59:50.251Z,83.87
2019-01-13T22:02:19.054Z,84.82
2019-01-13T22:04:47.843Z,84.66
2019-01-13T22:07:16.623Z,84.97
2019-01-13T22:09:45.428Z,85.37
2019-01-13T22:12:20.980Z,85.23
2019-01-13T22:14:49.815Z,85.65
2019-01-13T22:17:18.630Z,85.85
2019-01-13T22:19:47.460Z,86.00
2019-01-13T22:22:16.231Z,86.00
2019-01-13T22:24:45.033Z,85.41
2019-01-13T22:27:13.816Z,85.66
2019-01-13T22:29:42.679Z,85.69
2019-01-13T22:32:11.463Z,85.75
2019-01-13T22:37:15.335Z,86.60
2019-01-13T22:39:44.140Z,87.04
2019-01-13T22:42:12.928Z,87.30
2019-01-13T22:44:41.705Z,87.65
2019-01-13T22:47:10.489Z,87.31
2019-01-13T22:49:39.263Z,87.45
2019-01-13T22:52:08.101Z,87.23
2019-01-13T22:54:36.896Z,87.03
2019-01-13T22:57:05.743Z,86.86
2019-01-13T22:59:34.604Z,87.07
2019-01-13T23:02:03.423Z,87.07
2019-01-13T23:04:32.239Z,87.84
2019-01-13T23:07:01.025Z,87.91
2019-01-13T23:09:29.867Z,88.12
2019-01-13T23:11:58.767Z,88.16
2019-01-13T23:14:27.576Z,88.15
2019-01-13T23:16:56.358Z,88.40
2019-01-13T23:19:25.131Z,87.90
2019-01-13T23:21:54.036Z,88.22
2019-01-13T23:24:22.935Z,88.27
2019-01-13T23:26:51.768Z,88.54
2019-01-13T23:29:20.586Z,88.35
2019-01-13T23:31:49.412Z,88.31
2019-01-13T23:34:18.183Z,88.88
2019-01-13T23:36:46.955Z,88.86
2019-01-13T23:39:15.755Z,88.86
2019-01-13T23:41:44.585Z,88.57
2019-01-13T23:44:13.431Z,89.63
2019-01-13T23:46:42.199Z,89.11
2019-01-13T23:49:10.995Z,89.47
2019-01-13T23:51:39.774Z,90.23
2019-01-13T23:54:08.603Z,89.57
2019-01-13T23:56:37.461Z,89.53
2019-01-13T23:59:06.239Z,89.20
